sensor_id;sensor_type;location;lat;lon;timestamp;P1;durP1;ratioP1;P2;durP2;ratioP2
39948;SDS011;29070;48.102;-1.652;2023-11-21T00:03:59;6.40;;;0.63;;
39948;SDS011;29070;48.102;-1.652;2023-11-21T00:09:00;8.82;;;0.75;;
39948;SDS011;29070;48.102;-1.652;2023-11-21T00:14:01;5.40;;;0.90;;
39948;SDS011;29070;48.102;-1.652;2023-11-21T00:19:01;3.17;;;0.50;;
39948;SDS011;29070;48.102;-1.652;2023-11-21T00:24:01;3.53;;;0.50;;
39948;SDS011;29070;48.102;-1.652;2023-11-21T00:29:02;1.95;;;0.60;;
39948;SDS011;29070;48.102;-1.652;2023-11-21T00:34:02;3.40;;;0.70;;
39948;SDS011;29070;48.102;-1.652;2023-11-21T00:50:52;2.33;;;0.50;;
39948;SDS011;29070;48.102;-1.652;2023-11-21T00:55:53;2.87;;;0.60;;
39948;SDS011;29070;48.102;-1.652;2023-11-21T01:00:57;4.97;;;0.77;;
39948;SDS011;29070;48.102;-1.652;2023-11-21T01:05:57;4.28;;;0.70;;
39948;SDS011;29070;48.102;-1.652;2023-11-21T01:10:59;6.47;;;0.90;;
39948;SDS011;29070;48.102;-1.652;2023-11-21T01:15:59;3.88;;;0.63;;
39948;SDS011;29070;48.102;-1.652;2023-11-21T01:21:00;3.20;;;0.50;;
39948;SDS011;29070;48.102;-1.652;2023-11-21T01:26:00;2.00;;;0.90;;
39948;SDS011;29070;48.102;-1.652;2023-11-21T01:31:00;3.38;;;0.50;;
39948;SDS011;29070;48.102;-1.652;2023-11-21T01:36:01;4.38;;;0.70;;
39948;SDS011;29070;48.102;-1.652;2023-11-21T01:41:02;3.70;;;0.75;;
39948;SDS011;29070;48.102;-1.652;2023-11-21T01:46:02;5.10;;;0.50;;
39948;SDS011;29070;48.102;-1.652;2023-11-21T01:51:03;6.10;;;0.70;;
39948;SDS011;29070;48.102;-1.652;2023-11-21T01:56:03;1.13;;;0.40;;
39948;SDS011;29070;48.102;-1.652;2023-11-21T02:01:04;5.88;;;0.82;;
39948;SDS011;29070;48.102;-1.652;2023-11-21T02:06:05;5.30;;;0.57;;
39948;SDS011;29070;48.102;-1.652;2023-11-21T02:11:07;4.43;;;0.60;;
39948;SDS011;29070;48.102;-1.652;2023-11-21T02:16:07;1.17;;;0.40;;
39948;SDS011;29070;48.102;-1.652;2023-11-21T02:21:08;2.25;;;0.32;;
39948;SDS011;29070;48.102;-1.652;2023-11-21T02:26:10;0.50;;;0.30;;
39948;SDS011;29070;48.102;-1.652;2023-11-21T02:31:10;2.58;;;0.43;;
39948;SDS011;29070;48.102;-1.652;2023-11-21T02:36:12;1.05;;;0.20;;
39948;SDS011;29070;48.102;-1.652;2023-11-21T02:41:12;0.17;;;0.17;;
39948;SDS011;29070;48.102;-1.652;2023-11-21T02:46:13;2.60;;;0.35;;
39948;SDS011;29070;48.102;-1.652;2023-11-21T02:51:13;2.03;;;0.50;;
39948;SDS011;29070;48.102;-1.652;2023-11-21T02:56:15;3.22;;;0.30;;
39948;SDS011;29070;48.102;-1.652;2023-11-21T03:01:16;1.50;;;0.32;;
39948;SDS011;29070;48.102;-1.652;2023-11-21T03:06:17;2.58;;;0.57;;
39948;SDS011;29070;48.102;-1.652;2023-11-21T03:11:18;1.65;;;0.38;;
39948;SDS011;29070;48.102;-1.652;2023-11-21T03:16:19;2.30;;;0.57;;
39948;SDS011;29070;48.102;-1.652;2023-11-21T03:21:20;2.37;;;0.30;;
39948;SDS011;29070;48.102;-1.652;2023-11-21T03:26:20;3.53;;;0.45;;
39948;SDS011;29070;48.102;-1.652;2023-11-21T03:31:20;7.28;;;0.80;;
39948;SDS011;29070;48.102;-1.652;2023-11-21T03:36:21;2.75;;;0.50;;
39948;SDS011;29070;48.102;-1.652;2023-11-21T03:41:21;2.53;;;0.40;;
39948;SDS011;29070;48.102;-1.652;2023-11-21T03:46:21;2.00;;;0.60;;
39948;SDS011;29070;48.102;-1.652;2023-11-21T03:51:22;5.93;;;0.88;;
39948;SDS011;29070;48.102;-1.652;2023-11-21T03:56:22;5.27;;;0.57;;
39948;SDS011;29070;48.102;-1.652;2023-11-21T04:01:22;4.07;;;0.40;;
39948;SDS011;29070;48.102;-1.652;2023-11-21T04:06:23;3.88;;;0.80;;
39948;SDS011;29070;48.102;-1.652;2023-11-21T04:11:24;1.20;;;0.60;;
39948;SDS011;29070;48.102;-1.652;2023-11-21T04:16:24;4.67;;;0.60;;
39948;SDS011;29070;48.102;-1.652;2023-11-21T04:21:25;1.08;;;0.45;;
39948;SDS011;29070;48.102;-1.652;2023-11-21T04:26:25;2.07;;;0.40;;
39948;SDS011;29070;48.102;-1.652;2023-11-21T04:31:25;5.03;;;1.05;;
39948;SDS011;29070;48.102;-1.652;2023-11-21T04:36:26;3.20;;;0.50;;
39948;SDS011;29070;48.102;-1.652;2023-11-21T04:41:26;4.85;;;0.45;;
39948;SDS011;29070;48.102;-1.652;2023-11-21T04:46:27;5.17;;;0.40;;
39948;SDS011;29070;48.102;-1.652;2023-11-21T04:51:27;3.53;;;0.70;;
39948;SDS011;29070;48.102;-1.652;2023-11-21T04:56:27;1.05;;;0.20;;
39948;SDS011;29070;48.102;-1.652;2023-11-21T05:01:27;2.67;;;0.60;;
39948;SDS011;29070;48.102;-1.652;2023-11-21T05:06:28;5.70;;;0.63;;
39948;SDS011;29070;48.102;-1.652;2023-11-21T05:11:28;5.32;;;0.50;;
39948;SDS011;29070;48.102;-1.652;2023-11-21T05:16:32;5.75;;;0.88;;
39948;SDS011;29070;48.102;-1.652;2023-11-21T05:21:32;3.22;;;0.70;;
39948;SDS011;29070;48.102;-1.652;2023-11-21T05:26:32;2.13;;;0.47;;
39948;SDS011;29070;48.102;-1.652;2023-11-21T05:31:33;4.78;;;0.50;;
39948;SDS011;29070;48.102;-1.652;2023-11-21T05:36:33;1.90;;;0.87;;
39948;SDS011;29070;48.102;-1.652;2023-11-21T05:41:33;3.60;;;0.63;;
39948;SDS011;29070;48.102;-1.652;2023-11-21T05:46:34;3.17;;;0.50;;
39948;SDS011;29070;48.102;-1.652;2023-11-21T05:51:34;4.32;;;0.60;;
39948;SDS011;29070;48.102;-1.652;2023-11-21T05:56:35;3.33;;;0.88;;
39948;SDS011;29070;48.102;-1.652;2023-11-21T06:01:35;0.77;;;0.50;;
39948;SDS011;29070;48.102;-1.652;2023-11-21T06:06:38;1.90;;;0.30;;
39948;SDS011;29070;48.102;-1.652;2023-11-21T06:11:38;6.40;;;0.60;;
39948;SDS011;29070;48.102;-1.652;2023-11-21T06:16:39;1.67;;;0.40;;
39948;SDS011;29070;48.102;-1.652;2023-11-21T06:21:40;7.03;;;1.20;;
39948;SDS011;29070;48.102;-1.652;2023-11-21T06:26:41;1.15;;;0.65;;
39948;SDS011;29070;48.102;-1.652;2023-11-21T06:31:41;3.30;;;0.47;;
39948;SDS011;29070;48.102;-1.652;2023-11-21T06:36:41;3.25;;;1.27;;
39948;SDS011;29070;48.102;-1.652;2023-11-21T06:41:41;3.58;;;0.50;;
39948;SDS011;29070;48.102;-1.652;2023-11-21T06:46:43;3.83;;;0.82;;
39948;SDS011;29070;48.102;-1.652;2023-11-21T06:51:43;4.75;;;0.70;;
39948;SDS011;29070;48.102;-1.652;2023-11-21T06:56:43;6.18;;;1.55;;
39948;SDS011;29070;48.102;-1.652;2023-11-21T07:01:43;7.43;;;1.23;;
39948;SDS011;29070;48.102;-1.652;2023-11-21T07:06:44;3.05;;;1.15;;
39948;SDS011;29070;48.102;-1.652;2023-11-21T07:11:44;6.38;;;1.42;;
39948;SDS011;29070;48.102;-1.652;2023-11-21T07:16:45;1.07;;;0.70;;
39948;SDS011;29070;48.102;-1.652;2023-11-21T07:21:46;4.18;;;1.15;;
39948;SDS011;29070;48.102;-1.652;2023-11-21T07:26:47;4.72;;;1.00;;
39948;SDS011;29070;48.102;-1.652;2023-11-21T07:31:48;4.60;;;1.13;;
39948;SDS011;29070;48.102;-1.652;2023-11-21T07:36:48;6.20;;;1.00;;
39948;SDS011;29070;48.102;-1.652;2023-11-21T07:41:48;4.33;;;0.60;;
39948;SDS011;29070;48.102;-1.652;2023-11-21T07:46:50;3.00;;;0.50;;
39948;SDS011;29070;48.102;-1.652;2023-11-21T07:51:50;2.85;;;0.40;;
39948;SDS011;29070;48.102;-1.652;2023-11-21T07:56:50;2.47;;;0.60;;
39948;SDS011;29070;48.102;-1.652;2023-11-21T08:01:51;2.53;;;0.95;;
39948;SDS011;29070;48.102;-1.652;2023-11-21T08:06:51;2.22;;;0.80;;
39948;SDS011;29070;48.102;-1.652;2023-11-21T08:11:51;4.18;;;0.52;;
39948;SDS011;29070;48.102;-1.652;2023-11-21T08:16:52;2.08;;;0.50;;
39948;SDS011;29070;48.102;-1.652;2023-11-21T08:21:57;3.30;;;0.60;;
39948;SDS011;29070;48.102;-1.652;2023-11-21T08:26:59;1.48;;;0.30;;
39948;SDS011;29070;48.102;-1.652;2023-11-21T08:31:59;1.88;;;0.25;;
39948;SDS011;29070;48.102;-1.652;2023-11-21T08:37:00;4.45;;;0.40;;
39948;SDS011;29070;48.102;-1.652;2023-11-21T08:42:00;2.90;;;0.30;;
39948;SDS011;29070;48.102;-1.652;2023-11-21T08:47:01;4.10;;;0.60;;
39948;SDS011;29070;48.102;-1.652;2023-11-21T08:52:01;3.80;;;0.50;;
39948;SDS011;29070;48.102;-1.652;2023-11-21T08:57:02;3.10;;;0.50;;
39948;SDS011;29070;48.102;-1.652;2023-11-21T09:02:03;2.88;;;0.63;;
39948;SDS011;29070;48.102;-1.652;2023-11-21T09:07:03;3.00;;;0.88;;
39948;SDS011;29070;48.102;-1.652;2023-11-21T09:12:03;2.17;;;0.60;;
39948;SDS011;29070;48.102;-1.652;2023-11-21T09:17:04;1.15;;;0.57;;
39948;SDS011;29070;48.102;-1.652;2023-11-21T09:22:10;4.45;;;0.60;;
39948;SDS011;29070;48.102;-1.652;2023-11-21T09:27:11;3.43;;;0.50;;
39948;SDS011;29070;48.102;-1.652;2023-11-21T09:32:11;4.43;;;0.70;;
39948;SDS011;29070;48.102;-1.652;2023-11-21T09:37:14;6.53;;;0.52;;
39948;SDS011;29070;48.102;-1.652;2023-11-21T09:42:20;3.00;;;0.63;;
39948;SDS011;29070;48.102;-1.652;2023-11-21T09:47:25;3.50;;;0.73;;
39948;SDS011;29070;48.102;-1.652;2023-11-21T09:52:26;4.43;;;0.50;;
39948;SDS011;29070;48.102;-1.652;2023-11-21T09:57:28;3.15;;;0.80;;
39948;SDS011;29070;48.102;-1.652;2023-11-21T10:02:29;3.47;;;0.70;;
39948;SDS011;29070;48.102;-1.652;2023-11-21T10:07:30;1.70;;;0.50;;
39948;SDS011;29070;48.102;-1.652;2023-11-21T10:12:33;2.03;;;0.52;;
39948;SDS011;29070;48.102;-1.652;2023-11-21T10:17:35;5.65;;;0.75;;
39948;SDS011;29070;48.102;-1.652;2023-11-21T10:22:43;3.08;;;1.00;;
39948;SDS011;29070;48.102;-1.652;2023-11-21T10:27:46;13.27;;;4.93;;
39948;SDS011;29070;48.102;-1.652;2023-11-21T10:32:47;2.42;;;1.30;;
39948;SDS011;29070;48.102;-1.652;2023-11-21T10:37:48;4.43;;;0.53;;
39948;SDS011;29070;48.102;-1.652;2023-11-21T10:43:05;5.53;;;1.20;;
39948;SDS011;29070;48.102;-1.652;2023-11-21T10:48:09;4.80;;;3.08;;
39948;SDS011;29070;48.102;-1.652;2023-11-21T10:53:10;2.13;;;0.88;;
39948;SDS011;29070;48.102;-1.652;2023-11-21T10:58:14;3.55;;;1.23;;
39948;SDS011;29070;48.102;-1.652;2023-11-21T11:03:15;3.15;;;0.82;;
39948;SDS011;29070;48.102;-1.652;2023-11-21T11:08:16;5.78;;;3.15;;
39948;SDS011;29070;48.102;-1.652;2023-11-21T11:13:18;3.20;;;1.30;;
39948;SDS011;29070;48.102;-1.652;2023-11-21T11:18:19;1.00;;;0.43;;
39948;SDS011;29070;48.102;-1.652;2023-11-21T11:34:17;4.22;;;0.70;;
39948;SDS011;29070;48.102;-1.652;2023-11-21T11:39:33;2.60;;;0.90;;
39948;SDS011;29070;48.102;-1.652;2023-11-21T11:50:10;2.55;;;0.80;;
39948;SDS011;29070;48.102;-1.652;2023-11-21T11:55:17;2.35;;;0.73;;
39948;SDS011;29070;48.102;-1.652;2023-11-21T12:00:19;3.08;;;1.00;;
39948;SDS011;29070;48.102;-1.652;2023-11-21T12:05:22;4.07;;;1.00;;
39948;SDS011;29070;48.102;-1.652;2023-11-21T12:10:24;6.78;;;1.20;;
39948;SDS011;29070;48.102;-1.652;2023-11-21T12:15:25;5.28;;;1.20;;
39948;SDS011;29070;48.102;-1.652;2023-11-21T12:20:29;4.97;;;1.10;;
39948;SDS011;29070;48.102;-1.652;2023-11-21T12:25:31;4.82;;;1.50;;
39948;SDS011;29070;48.102;-1.652;2023-11-21T12:30:35;4.28;;;1.00;;
39948;SDS011;29070;48.102;-1.652;2023-11-21T12:35:37;2.65;;;1.00;;
39948;SDS011;29070;48.102;-1.652;2023-11-21T12:40:38;3.77;;;1.03;;
39948;SDS011;29070;48.102;-1.652;2023-11-21T12:45:38;3.03;;;1.10;;
39948;SDS011;29070;48.102;-1.652;2023-11-21T12:50:38;3.30;;;1.00;;
39948;SDS011;29070;48.102;-1.652;2023-11-21T12:55:39;2.70;;;0.82;;
39948;SDS011;29070;48.102;-1.652;2023-11-21T13:00:45;2.00;;;0.90;;
39948;SDS011;29070;48.102;-1.652;2023-11-21T13:05:48;1.77;;;0.70;;
39948;SDS011;29070;48.102;-1.652;2023-11-21T13:10:55;2.08;;;0.95;;
39948;SDS011;29070;48.102;-1.652;2023-11-21T13:15:59;1.90;;;0.70;;
39948;SDS011;29070;48.102;-1.652;2023-11-21T13:21:04;1.55;;;0.88;;
39948;SDS011;29070;48.102;-1.652;2023-11-21T13:26:11;2.17;;;0.80;;
39948;SDS011;29070;48.102;-1.652;2023-11-21T13:31:12;2.50;;;0.60;;
39948;SDS011;29070;48.102;-1.652;2023-11-21T13:36:26;1.05;;;0.60;;
39948;SDS011;29070;48.102;-1.652;2023-11-21T13:41:30;3.20;;;1.40;;
39948;SDS011;29070;48.102;-1.652;2023-11-21T13:46:30;2.73;;;0.77;;
39948;SDS011;29070;48.102;-1.652;2023-11-21T13:51:36;1.70;;;1.00;;
39948;SDS011;29070;48.102;-1.652;2023-11-21T13:56:50;2.90;;;1.00;;
39948;SDS011;29070;48.102;-1.652;2023-11-21T14:01:51;4.80;;;1.37;;
39948;SDS011;29070;48.102;-1.652;2023-11-21T14:07:11;4.22;;;1.10;;
39948;SDS011;29070;48.102;-1.652;2023-11-21T14:12:26;4.65;;;2.05;;
39948;SDS011;29070;48.102;-1.652;2023-11-21T14:17:28;2.22;;;0.82;;
39948;SDS011;29070;48.102;-1.652;2023-11-21T14:22:29;2.28;;;1.35;;
39948;SDS011;29070;48.102;-1.652;2023-11-21T14:27:29;1.83;;;1.25;;
39948;SDS011;29070;48.102;-1.652;2023-11-21T14:32:29;1.53;;;1.00;;
39948;SDS011;29070;48.102;-1.652;2023-11-21T14:37:31;4.28;;;1.10;;
39948;SDS011;29070;48.102;-1.652;2023-11-21T14:42:31;3.67;;;0.80;;
39948;SDS011;29070;48.102;-1.652;2023-11-21T14:47:31;2.97;;;1.00;;
39948;SDS011;29070;48.102;-1.652;2023-11-21T14:52:32;2.92;;;0.85;;
39948;SDS011;29070;48.102;-1.652;2023-11-21T14:57:33;4.07;;;1.63;;
39948;SDS011;29070;48.102;-1.652;2023-11-21T15:02:34;2.53;;;1.13;;
39948;SDS011;29070;48.102;-1.652;2023-11-21T15:07:50;1.90;;;0.70;;
39948;SDS011;29070;48.102;-1.652;2023-11-21T15:12:52;4.45;;;1.17;;
39948;SDS011;29070;48.102;-1.652;2023-11-21T15:17:52;4.30;;;1.60;;
39948;SDS011;29070;48.102;-1.652;2023-11-21T15:22:52;5.30;;;1.52;;
39948;SDS011;29070;48.102;-1.652;2023-11-21T15:27:53;4.77;;;1.50;;
39948;SDS011;29070;48.102;-1.652;2023-11-21T15:32:53;3.90;;;0.80;;
39948;SDS011;29070;48.102;-1.652;2023-11-21T15:37:54;1.37;;;0.90;;
39948;SDS011;29070;48.102;-1.652;2023-11-21T15:42:57;2.20;;;1.20;;
39948;SDS011;29070;48.102;-1.652;2023-11-21T15:47:58;3.10;;;1.10;;
39948;SDS011;29070;48.102;-1.652;2023-11-21T15:52:58;5.65;;;0.88;;
39948;SDS011;29070;48.102;-1.652;2023-11-21T15:57:59;2.77;;;1.03;;
39948;SDS011;29070;48.102;-1.652;2023-11-21T16:03:02;3.35;;;1.63;;
39948;SDS011;29070;48.102;-1.652;2023-11-21T16:08:02;5.20;;;2.40;;
39948;SDS011;29070;48.102;-1.652;2023-11-21T16:13:03;5.43;;;1.38;;
39948;SDS011;29070;48.102;-1.652;2023-11-21T16:18:03;5.07;;;1.35;;
39948;SDS011;29070;48.102;-1.652;2023-11-21T16:23:04;4.72;;;2.05;;
39948;SDS011;29070;48.102;-1.652;2023-11-21T16:28:04;5.22;;;1.85;;
39948;SDS011;29070;48.102;-1.652;2023-11-21T16:33:05;2.83;;;1.70;;
39948;SDS011;29070;48.102;-1.652;2023-11-21T16:38:06;5.93;;;2.08;;
39948;SDS011;29070;48.102;-1.652;2023-11-21T16:43:07;5.90;;;2.13;;
39948;SDS011;29070;48.102;-1.652;2023-11-21T16:48:08;5.95;;;1.67;;
39948;SDS011;29070;48.102;-1.652;2023-11-21T16:53:09;8.23;;;3.63;;
39948;SDS011;29070;48.102;-1.652;2023-11-21T16:58:10;6.72;;;4.13;;
39948;SDS011;29070;48.102;-1.652;2023-11-21T17:03:10;5.13;;;1.95;;
39948;SDS011;29070;48.102;-1.652;2023-11-21T17:08:11;6.97;;;2.67;;
39948;SDS011;29070;48.102;-1.652;2023-11-21T17:13:13;3.97;;;2.58;;
39948;SDS011;29070;48.102;-1.652;2023-11-21T17:18:14;5.87;;;2.70;;
39948;SDS011;29070;48.102;-1.652;2023-11-21T17:23:14;3.03;;;1.27;;
39948;SDS011;29070;48.102;-1.652;2023-11-21T17:28:14;1.93;;;1.27;;
39948;SDS011;29070;48.102;-1.652;2023-11-21T17:33:14;8.77;;;2.93;;
39948;SDS011;29070;48.102;-1.652;2023-11-21T17:38:15;9.50;;;2.17;;
39948;SDS011;29070;48.102;-1.652;2023-11-21T17:43:15;4.30;;;1.17;;
39948;SDS011;29070;48.102;-1.652;2023-11-21T17:48:17;3.50;;;0.90;;
39948;SDS011;29070;48.102;-1.652;2023-11-21T17:53:17;2.10;;;1.00;;
39948;SDS011;29070;48.102;-1.652;2023-11-21T17:58:18;2.10;;;0.90;;
39948;SDS011;29070;48.102;-1.652;2023-11-21T18:03:18;3.72;;;1.40;;
39948;SDS011;29070;48.102;-1.652;2023-11-21T18:08:18;10.07;;;2.45;;
39948;SDS011;29070;48.102;-1.652;2023-11-21T18:13:19;3.67;;;2.08;;
39948;SDS011;29070;48.102;-1.652;2023-11-21T18:18:19;4.07;;;2.10;;
39948;SDS011;29070;48.102;-1.652;2023-11-21T18:23:19;3.50;;;1.48;;
39948;SDS011;29070;48.102;-1.652;2023-11-21T18:28:19;2.73;;;1.30;;
39948;SDS011;29070;48.102;-1.652;2023-11-21T18:33:20;2.88;;;1.50;;
39948;SDS011;29070;48.102;-1.652;2023-11-21T18:38:20;5.47;;;2.00;;
39948;SDS011;29070;48.102;-1.652;2023-11-21T18:43:21;1.55;;;1.05;;
39948;SDS011;29070;48.102;-1.652;2023-11-21T18:48:21;2.38;;;1.23;;
39948;SDS011;29070;48.102;-1.652;2023-11-21T18:53:22;3.50;;;1.42;;
39948;SDS011;29070;48.102;-1.652;2023-11-21T18:58:22;4.17;;;1.63;;
39948;SDS011;29070;48.102;-1.652;2023-11-21T19:03:22;4.33;;;1.50;;
39948;SDS011;29070;48.102;-1.652;2023-11-21T19:08:23;3.50;;;1.17;;
39948;SDS011;29070;48.102;-1.652;2023-11-21T19:13:23;4.20;;;1.57;;
39948;SDS011;29070;48.102;-1.652;2023-11-21T19:18:24;2.78;;;1.20;;
39948;SDS011;29070;48.102;-1.652;2023-11-21T19:23:24;2.10;;;1.00;;
39948;SDS011;29070;48.102;-1.652;2023-11-21T19:28:25;2.95;;;1.40;;
39948;SDS011;29070;48.102;-1.652;2023-11-21T19:33:26;4.18;;;2.50;;
39948;SDS011;29070;48.102;-1.652;2023-11-21T19:38:26;3.83;;;2.17;;
39948;SDS011;29070;48.102;-1.652;2023-11-21T19:43:26;6.55;;;3.72;;
39948;SDS011;29070;48.102;-1.652;2023-11-21T19:48:27;12.90;;;8.17;;
39948;SDS011;29070;48.102;-1.652;2023-11-21T19:53:27;11.50;;;8.02;;
39948;SDS011;29070;48.102;-1.652;2023-11-21T19:58:27;5.07;;;2.60;;
39948;SDS011;29070;48.102;-1.652;2023-11-21T20:03:29;8.55;;;6.43;;
39948;SDS011;29070;48.102;-1.652;2023-11-21T20:08:29;14.80;;;10.77;;
39948;SDS011;29070;48.102;-1.652;2023-11-21T20:13:36;10.38;;;4.65;;
39948;SDS011;29070;48.102;-1.652;2023-11-21T20:18:36;7.17;;;4.90;;
39948;SDS011;29070;48.102;-1.652;2023-11-21T20:23:37;7.22;;;4.85;;
39948;SDS011;29070;48.102;-1.652;2023-11-21T20:28:37;8.77;;;5.90;;
39948;SDS011;29070;48.102;-1.652;2023-11-21T20:33:38;7.72;;;4.45;;
39948;SDS011;29070;48.102;-1.652;2023-11-21T20:38:38;11.10;;;5.00;;
39948;SDS011;29070;48.102;-1.652;2023-11-21T20:43:39;15.07;;;9.30;;
39948;SDS011;29070;48.102;-1.652;2023-11-21T20:48:40;3.65;;;2.65;;
39948;SDS011;29070;48.102;-1.652;2023-11-21T20:53:40;9.00;;;6.57;;
39948;SDS011;29070;48.102;-1.652;2023-11-21T20:58:40;5.33;;;3.43;;
39948;SDS011;29070;48.102;-1.652;2023-11-21T21:03:42;47.53;;;23.83;;
39948;SDS011;29070;48.102;-1.652;2023-11-21T21:08:45;8.13;;;4.60;;
39948;SDS011;29070;48.102;-1.652;2023-11-21T21:13:46;21.88;;;11.27;;
39948;SDS011;29070;48.102;-1.652;2023-11-21T21:18:47;14.75;;;7.82;;
39948;SDS011;29070;48.102;-1.652;2023-11-21T21:23:56;17.38;;;6.25;;
39948;SDS011;29070;48.102;-1.652;2023-11-21T21:28:58;18.63;;;7.13;;
39948;SDS011;29070;48.102;-1.652;2023-11-21T21:33:58;32.23;;;11.83;;
39948;SDS011;29070;48.102;-1.652;2023-11-21T21:38:58;41.20;;;14.07;;
39948;SDS011;29070;48.102;-1.652;2023-11-21T21:43:59;41.75;;;17.95;;
39948;SDS011;29070;48.102;-1.652;2023-11-21T21:48:59;15.27;;;6.87;;
39948;SDS011;29070;48.102;-1.652;2023-11-21T21:54:03;7.07;;;2.97;;
39948;SDS011;29070;48.102;-1.652;2023-11-21T21:59:07;11.10;;;4.55;;
39948;SDS011;29070;48.102;-1.652;2023-11-21T22:04:07;6.33;;;2.37;;
39948;SDS011;29070;48.102;-1.652;2023-11-21T22:09:08;7.72;;;3.75;;
39948;SDS011;29070;48.102;-1.652;2023-11-21T22:14:10;8.38;;;4.47;;
39948;SDS011;29070;48.102;-1.652;2023-11-21T22:19:11;7.80;;;3.53;;
39948;SDS011;29070;48.102;-1.652;2023-11-21T22:24:11;12.85;;;4.80;;
39948;SDS011;29070;48.102;-1.652;2023-11-21T22:29:11;25.83;;;8.73;;
39948;SDS011;29070;48.102;-1.652;2023-11-21T22:34:12;13.77;;;5.95;;
39948;SDS011;29070;48.102;-1.652;2023-11-21T22:39:13;12.63;;;4.90;;
39948;SDS011;29070;48.102;-1.652;2023-11-21T22:44:13;6.60;;;2.73;;
39948;SDS011;29070;48.102;-1.652;2023-11-21T22:49:13;11.40;;;4.35;;
39948;SDS011;29070;48.102;-1.652;2023-11-21T22:54:14;7.05;;;3.42;;
39948;SDS011;29070;48.102;-1.652;2023-11-21T22:59:14;4.85;;;2.40;;
39948;SDS011;29070;48.102;-1.652;2023-11-21T23:04:15;3.87;;;2.50;;
39948;SDS011;29070;48.102;-1.652;2023-11-21T23:09:19;5.03;;;2.30;;
39948;SDS011;29070;48.102;-1.652;2023-11-21T23:14:22;6.25;;;2.45;;
39948;SDS011;29070;48.102;-1.652;2023-11-21T23:19:22;5.57;;;2.50;;
39948;SDS011;29070;48.102;-1.652;2023-11-21T23:24:22;6.93;;;2.57;;
39948;SDS011;29070;48.102;-1.652;2023-11-21T23:29:23;4.20;;;1.95;;
39948;SDS011;29070;48.102;-1.652;2023-11-21T23:34:23;4.90;;;1.77;;
39948;SDS011;29070;48.102;-1.652;2023-11-21T23:39:24;4.20;;;1.40;;
39948;SDS011;29070;48.102;-1.652;2023-11-21T23:44:24;5.03;;;1.30;;
39948;SDS011;29070;48.102;-1.652;2023-11-21T23:49:27;2.13;;;1.02;;
39948;SDS011;29070;48.102;-1.652;2023-11-21T23:54:28;2.90;;;1.00;;
39948;SDS011;29070;48.102;-1.652;2023-11-21T23:59:28;1.58;;;0.70;;
